sensor_id;sensor_type;location;lat;lon;timestamp;temperature;humidity
15341;DHT22;7770;52.158;5.372;2023-02-18T00:01:58;10.10;99.90
15341;DHT22;7770;52.158;5.372;2023-02-18T00:04:44;10.10;99.90
15341;DHT22;7770;52.158;5.372;2023-02-18T00:07:34;10.10;99.90
15341;DHT22;7770;52.158;5.372;2023-02-18T00:10:21;10.10;99.90
15341;DHT22;7770;52.158;5.372;2023-02-18T00:13:07;10.10;99.90
15341;DHT22;7770;52.158;5.372;2023-02-18T00:15:53;10.20;99.90
15341;DHT22;7770;52.158;5.372;2023-02-18T00:18:39;10.20;99.90
15341;DHT22;7770;52.158;5.372;2023-02-18T00:21:26;10.20;99.90
15341;DHT22;7770;52.158;5.372;2023-02-18T00:24:14;10.20;99.90
15341;DHT22;7770;52.158;5.372;2023-02-18T00:27:01;10.20;99.90
15341;DHT22;7770;52.158;5.372;2023-02-18T00:29:47;10.20;99.90
15341;DHT22;7770;52.158;5.372;2023-02-18T00:32:34;10.20;99.90
15341;DHT22;7770;52.158;5.372;2023-02-18T00:35:20;10.10;99.90
15341;DHT22;7770;52.158;5.372;2023-02-18T00:38:06;10.10;99.90
15341;DHT22;7770;52.158;5.372;2023-02-18T00:40:52;10.10;99.90
15341;DHT22;7770;52.158;5.372;2023-02-18T00:43:38;10.10;99.90
15341;DHT22;7770;52.158;5.372;2023-02-18T00:46:25;10.10;99.90
15341;DHT22;7770;52.158;5.372;2023-02-18T00:49:12;10.00;99.90
15341;DHT22;7770;52.158;5.372;2023-02-18T00:51:58;10.00;99.90
15341;DHT22;7770;52.158;5.372;2023-02-18T00:54:44;10.00;99.90
15341;DHT22;7770;52.158;5.372;2023-02-18T00:57:30;10.00;99.90
15341;DHT22;7770;52.158;5.372;2023-02-18T01:00:16;9.90;99.90
15341;DHT22;7770;52.158;5.372;2023-02-18T01:03:02;9.90;99.90
15341;DHT22;7770;52.158;5.372;2023-02-18T01:05:51;10.00;99.90
15341;DHT22;7770;52.158;5.372;2023-02-18T01:08:39;9.90;99.90
15341;DHT22;7770;52.158;5.372;2023-02-18T01:11:25;9.90;99.90
15341;DHT22;7770;52.158;5.372;2023-02-18T01:14:11;9.90;99.90
15341;DHT22;7770;52.158;5.372;2023-02-18T01:16:57;9.90;99.90
15341;DHT22;7770;52.158;5.372;2023-02-18T01:19:43;9.90;99.90
15341;DHT22;7770;52.158;5.372;2023-02-18T01:22:29;9.80;99.90
15341;DHT22;7770;52.158;5.372;2023-02-18T01:25:15;9.80;99.90
15341;DHT22;7770;52.158;5.372;2023-02-18T01:28:02;9.80;99.90
15341;DHT22;7770;52.158;5.372;2023-02-18T01:30:48;9.70;99.90
15341;DHT22;7770;52.158;5.372;2023-02-18T01:33:35;9.70;99.90
15341;DHT22;7770;52.158;5.372;2023-02-18T01:36:21;9.70;99.90
15341;DHT22;7770;52.158;5.372;2023-02-18T01:39:07;9.70;99.90
15341;DHT22;7770;52.158;5.372;2023-02-18T01:41:53;9.60;99.90
15341;DHT22;7770;52.158;5.372;2023-02-18T01:44:40;9.60;99.90
15341;DHT22;7770;52.158;5.372;2023-02-18T01:47:26;9.60;99.90
15341;DHT22;7770;52.158;5.372;2023-02-18T01:50:12;9.60;99.90
15341;DHT22;7770;52.158;5.372;2023-02-18T01:52:58;9.50;99.90
15341;DHT22;7770;52.158;5.372;2023-02-18T01:55:46;9.60;99.90
15341;DHT22;7770;52.158;5.372;2023-02-18T01:58:33;9.50;99.90
15341;DHT22;7770;52.158;5.372;2023-02-18T02:01:20;9.50;99.90
15341;DHT22;7770;52.158;5.372;2023-02-18T02:04:06;9.50;99.90
15341;DHT22;7770;52.158;5.372;2023-02-18T02:06:52;9.50;99.90
15341;DHT22;7770;52.158;5.372;2023-02-18T02:09:39;9.50;99.90
15341;DHT22;7770;52.158;5.372;2023-02-18T02:16:05;9.50;99.90
15341;DHT22;7770;52.158;5.372;2023-02-18T02:19:09;9.50;99.90
15341;DHT22;7770;52.158;5.372;2023-02-18T02:26:49;9.40;99.90
15341;DHT22;7770;52.158;5.372;2023-02-18T02:29:33;9.40;99.90
15341;DHT22;7770;52.158;5.372;2023-02-18T02:32:57;9.40;99.90
15341;DHT22;7770;52.158;5.372;2023-02-18T02:36:15;9.40;99.90
15341;DHT22;7770;52.158;5.372;2023-02-18T02:39:41;9.40;99.90
15341;DHT22;7770;52.158;5.372;2023-02-18T02:47:01;9.40;99.90
15341;DHT22;7770;52.158;5.372;2023-02-18T02:49:30;9.40;99.90
15341;DHT22;7770;52.158;5.372;2023-02-18T02:52:27;9.50;99.90
15341;DHT22;7770;52.158;5.372;2023-02-18T02:55:17;9.50;99.90
15341;DHT22;7770;52.158;5.372;2023-02-18T02:58:03;9.50;99.90
15341;DHT22;7770;52.158;5.372;2023-02-18T03:03:54;9.50;99.90
15341;DHT22;7770;52.158;5.372;2023-02-18T03:10:31;9.60;99.90
15341;DHT22;7770;52.158;5.372;2023-02-18T03:16:47;9.60;99.90
15341;DHT22;7770;52.158;5.372;2023-02-18T03:19:39;9.70;99.90
15341;DHT22;7770;52.158;5.372;2023-02-18T03:22:35;9.70;99.90
15341;DHT22;7770;52.158;5.372;2023-02-18T03:25:25;9.70;99.90
15341;DHT22;7770;52.158;5.372;2023-02-18T03:28:15;9.80;99.90
15341;DHT22;7770;52.158;5.372;2023-02-18T03:31:09;9.80;99.90
15341;DHT22;7770;52.158;5.372;2023-02-18T03:34:02;9.80;99.90
15341;DHT22;7770;52.158;5.372;2023-02-18T03:36:50;9.80;99.90
15341;DHT22;7770;52.158;5.372;2023-02-18T03:39:41;9.80;99.90
15341;DHT22;7770;52.158;5.372;2023-02-18T03:42:31;9.80;99.90
15341;DHT22;7770;52.158;5.372;2023-02-18T03:45:17;9.80;99.90
15341;DHT22;7770;52.158;5.372;2023-02-18T03:48:03;9.80;99.90
15341;DHT22;7770;52.158;5.372;2023-02-18T03:50:50;9.80;99.90
15341;DHT22;7770;52.158;5.372;2023-02-18T03:53:36;9.80;99.90
15341;DHT22;7770;52.158;5.372;2023-02-18T03:56:22;9.90;99.90
15341;DHT22;7770;52.158;5.372;2023-02-18T03:59:09;9.90;99.90
15341;DHT22;7770;52.158;5.372;2023-02-18T04:01:56;9.90;99.90
15341;DHT22;7770;52.158;5.372;2023-02-18T04:04:42;9.90;99.90
15341;DHT22;7770;52.158;5.372;2023-02-18T04:07:28;9.90;99.90
15341;DHT22;7770;52.158;5.372;2023-02-18T04:10:14;9.90;99.90
15341;DHT22;7770;52.158;5.372;2023-02-18T04:13:00;9.90;99.90
15341;DHT22;7770;52.158;5.372;2023-02-18T04:15:50;9.90;99.90
15341;DHT22;7770;52.158;5.372;2023-02-18T04:18:36;10.00;99.90
15341;DHT22;7770;52.158;5.372;2023-02-18T04:21:22;10.00;99.90
15341;DHT22;7770;52.158;5.372;2023-02-18T04:24:08;10.00;99.90
15341;DHT22;7770;52.158;5.372;2023-02-18T04:26:54;10.00;99.90
15341;DHT22;7770;52.158;5.372;2023-02-18T04:29:40;10.10;99.90
15341;DHT22;7770;52.158;5.372;2023-02-18T04:32:26;10.10;99.90
15341;DHT22;7770;52.158;5.372;2023-02-18T04:35:12;10.10;99.90
15341;DHT22;7770;52.158;5.372;2023-02-18T04:37:59;10.10;99.90
15341;DHT22;7770;52.158;5.372;2023-02-18T04:40:45;10.10;99.90
15341;DHT22;7770;52.158;5.372;2023-02-18T04:43:31;10.10;99.90
15341;DHT22;7770;52.158;5.372;2023-02-18T04:46:17;10.10;99.90
15341;DHT22;7770;52.158;5.372;2023-02-18T04:49:03;10.10;99.90
15341;DHT22;7770;52.158;5.372;2023-02-18T04:51:49;10.10;99.90
15341;DHT22;7770;52.158;5.372;2023-02-18T04:54:35;10.10;99.90
15341;DHT22;7770;52.158;5.372;2023-02-18T04:57:21;10.10;99.90
15341;DHT22;7770;52.158;5.372;2023-02-18T05:00:08;10.10;99.90
15341;DHT22;7770;52.158;5.372;2023-02-18T05:02:55;10.10;99.90
15341;DHT22;7770;52.158;5.372;2023-02-18T05:05:41;10.10;99.90
15341;DHT22;7770;52.158;5.372;2023-02-18T05:08:27;10.00;99.90
15341;DHT22;7770;52.158;5.372;2023-02-18T05:11:14;10.00;99.90
15341;DHT22;7770;52.158;5.372;2023-02-18T05:14:00;10.00;99.90
15341;DHT22;7770;52.158;5.372;2023-02-18T05:16:46;10.00;99.90
15341;DHT22;7770;52.158;5.372;2023-02-18T05:19:32;10.00;99.90
15341;DHT22;7770;52.158;5.372;2023-02-18T05:22:18;10.00;99.90
15341;DHT22;7770;52.158;5.372;2023-02-18T05:25:04;10.00;99.90
15341;DHT22;7770;52.158;5.372;2023-02-18T05:27:51;10.00;99.90
15341;DHT22;7770;52.158;5.372;2023-02-18T05:30:37;10.00;99.90
15341;DHT22;7770;52.158;5.372;2023-02-18T05:33:23;10.00;99.90
15341;DHT22;7770;52.158;5.372;2023-02-18T05:36:09;10.00;99.90
15341;DHT22;7770;52.158;5.372;2023-02-18T05:38:55;10.00;99.90
15341;DHT22;7770;52.158;5.372;2023-02-18T05:41:41;10.00;99.90
15341;DHT22;7770;52.158;5.372;2023-02-18T05:44:27;10.00;99.90
15341;DHT22;7770;52.158;5.372;2023-02-18T05:47:16;10.00;99.90
15341;DHT22;7770;52.158;5.372;2023-02-18T05:50:03;10.00;99.90
15341;DHT22;7770;52.158;5.372;2023-02-18T05:52:49;10.00;99.90
15341;DHT22;7770;52.158;5.372;2023-02-18T05:55:35;10.10;99.90
15341;DHT22;7770;52.158;5.372;2023-02-18T05:58:23;10.10;99.90
15341;DHT22;7770;52.158;5.372;2023-02-18T06:01:09;10.10;99.90
15341;DHT22;7770;52.158;5.372;2023-02-18T06:03:55;10.10;99.90
15341;DHT22;7770;52.158;5.372;2023-02-18T06:06:41;10.20;99.90
15341;DHT22;7770;52.158;5.372;2023-02-18T06:09:28;10.20;99.90
15341;DHT22;7770;52.158;5.372;2023-02-18T06:12:13;10.20;99.90
15341;DHT22;7770;52.158;5.372;2023-02-18T06:15:00;10.20;99.90
15341;DHT22;7770;52.158;5.372;2023-02-18T06:17:46;10.20;99.90
15341;DHT22;7770;52.158;5.372;2023-02-18T06:20:32;10.20;99.90
15341;DHT22;7770;52.158;5.372;2023-02-18T06:23:18;10.20;99.90
15341;DHT22;7770;52.158;5.372;2023-02-18T06:26:05;10.20;99.90
15341;DHT22;7770;52.158;5.372;2023-02-18T06:28:51;10.20;99.90
15341;DHT22;7770;52.158;5.372;2023-02-18T06:31:37;10.20;99.90
15341;DHT22;7770;52.158;5.372;2023-02-18T06:34:24;10.30;99.90
15341;DHT22;7770;52.158;5.372;2023-02-18T06:37:11;10.30;99.90
15341;DHT22;7770;52.158;5.372;2023-02-18T06:39:57;10.30;99.90
15341;DHT22;7770;52.158;5.372;2023-02-18T06:42:43;10.30;99.90
15341;DHT22;7770;52.158;5.372;2023-02-18T06:45:29;10.30;99.90
15341;DHT22;7770;52.158;5.372;2023-02-18T06:48:16;10.30;99.90
15341;DHT22;7770;52.158;5.372;2023-02-18T06:51:02;10.30;99.90
15341;DHT22;7770;52.158;5.372;2023-02-18T06:53:48;10.30;99.90
15341;DHT22;7770;52.158;5.372;2023-02-18T06:56:34;10.30;99.90
15341;DHT22;7770;52.158;5.372;2023-02-18T06:59:21;10.20;99.90
15341;DHT22;7770;52.158;5.372;2023-02-18T07:02:08;10.20;99.90
15341;DHT22;7770;52.158;5.372;2023-02-18T07:04:56;10.20;99.90
15341;DHT22;7770;52.158;5.372;2023-02-18T07:07:42;10.10;99.90
15341;DHT22;7770;52.158;5.372;2023-02-18T07:10:28;10.10;99.90
15341;DHT22;7770;52.158;5.372;2023-02-18T07:13:14;10.20;99.90
15341;DHT22;7770;52.158;5.372;2023-02-18T07:16:01;10.20;99.90
15341;DHT22;7770;52.158;5.372;2023-02-18T07:18:47;10.20;99.90
15341;DHT22;7770;52.158;5.372;2023-02-18T07:21:33;10.20;99.90
15341;DHT22;7770;52.158;5.372;2023-02-18T07:24:18;10.20;99.90
15341;DHT22;7770;52.158;5.372;2023-02-18T07:27:05;10.20;99.90
15341;DHT22;7770;52.158;5.372;2023-02-18T07:29:51;10.20;99.90
15341;DHT22;7770;52.158;5.372;2023-02-18T07:32:37;10.20;99.90
15341;DHT22;7770;52.158;5.372;2023-02-18T07:35:23;10.20;99.90
15341;DHT22;7770;52.158;5.372;2023-02-18T07:38:09;10.20;99.90
15341;DHT22;7770;52.158;5.372;2023-02-18T07:40:56;10.10;99.90
15341;DHT22;7770;52.158;5.372;2023-02-18T07:43:43;10.10;99.90
15341;DHT22;7770;52.158;5.372;2023-02-18T07:46:29;10.10;99.90
15341;DHT22;7770;52.158;5.372;2023-02-18T07:49:15;10.20;99.90
15341;DHT22;7770;52.158;5.372;2023-02-18T07:52:01;10.20;99.90
15341;DHT22;7770;52.158;5.372;2023-02-18T07:54:47;10.20;99.90
15341;DHT22;7770;52.158;5.372;2023-02-18T07:57:33;10.20;99.90
15341;DHT22;7770;52.158;5.372;2023-02-18T08:00:39;10.20;99.90
15341;DHT22;7770;52.158;5.372;2023-02-18T08:03:28;10.20;99.90
15341;DHT22;7770;52.158;5.372;2023-02-18T08:06:30;10.20;99.90
15341;DHT22;7770;52.158;5.372;2023-02-18T08:09:19;10.20;99.90
15341;DHT22;7770;52.158;5.372;2023-02-18T08:12:06;10.20;99.90
15341;DHT22;7770;52.158;5.372;2023-02-18T08:14:52;10.20;99.90
15341;DHT22;7770;52.158;5.372;2023-02-18T08:17:38;10.20;99.90
15341;DHT22;7770;52.158;5.372;2023-02-18T08:20:24;10.20;99.90
15341;DHT22;7770;52.158;5.372;2023-02-18T08:23:10;10.20;99.90
15341;DHT22;7770;52.158;5.372;2023-02-18T08:25:56;10.20;99.90
15341;DHT22;7770;52.158;5.372;2023-02-18T08:28:43;10.20;99.90
15341;DHT22;7770;52.158;5.372;2023-02-18T08:31:30;10.10;99.90
15341;DHT22;7770;52.158;5.372;2023-02-18T08:34:16;10.00;99.90
15341;DHT22;7770;52.158;5.372;2023-02-18T08:37:02;10.00;99.90
15341;DHT22;7770;52.158;5.372;2023-02-18T08:39:48;10.00;99.90
15341;DHT22;7770;52.158;5.372;2023-02-18T08:42:35;9.90;99.90
15341;DHT22;7770;52.158;5.372;2023-02-18T08:45:21;9.90;99.90
15341;DHT22;7770;52.158;5.372;2023-02-18T08:48:08;9.80;99.90
15341;DHT22;7770;52.158;5.372;2023-02-18T08:50:56;9.80;99.90
15341;DHT22;7770;52.158;5.372;2023-02-18T08:53:42;9.80;99.90
15341;DHT22;7770;52.158;5.372;2023-02-18T08:56:29;9.80;99.90
15341;DHT22;7770;52.158;5.372;2023-02-18T08:59:16;9.80;99.90
15341;DHT22;7770;52.158;5.372;2023-02-18T09:02:02;9.80;99.90
15341;DHT22;7770;52.158;5.372;2023-02-18T09:04:48;9.70;99.90
15341;DHT22;7770;52.158;5.372;2023-02-18T09:07:35;9.80;99.90
15341;DHT22;7770;52.158;5.372;2023-02-18T09:10:22;9.80;99.90
15341;DHT22;7770;52.158;5.372;2023-02-18T09:13:08;9.80;99.90
15341;DHT22;7770;52.158;5.372;2023-02-18T09:16:06;9.90;99.90
15341;DHT22;7770;52.158;5.372;2023-02-18T09:19:04;9.90;99.90
15341;DHT22;7770;52.158;5.372;2023-02-18T09:21:51;9.90;99.90
15341;DHT22;7770;52.158;5.372;2023-02-18T09:24:42;9.90;99.90
15341;DHT22;7770;52.158;5.372;2023-02-18T09:27:28;9.90;99.90
15341;DHT22;7770;52.158;5.372;2023-02-18T09:30:14;10.00;99.90
15341;DHT22;7770;52.158;5.372;2023-02-18T09:33:00;10.00;99.90
15341;DHT22;7770;52.158;5.372;2023-02-18T09:35:46;10.00;99.90
15341;DHT22;7770;52.158;5.372;2023-02-18T09:38:32;10.00;99.90
15341;DHT22;7770;52.158;5.372;2023-02-18T09:44:34;10.10;99.90
15341;DHT22;7770;52.158;5.372;2023-02-18T09:47:39;10.10;99.90
15341;DHT22;7770;52.158;5.372;2023-02-18T09:50:31;10.20;99.90
15341;DHT22;7770;52.158;5.372;2023-02-18T09:53:20;10.20;99.90
15341;DHT22;7770;52.158;5.372;2023-02-18T09:56:12;10.30;99.90
15341;DHT22;7770;52.158;5.372;2023-02-18T09:59:04;10.30;99.90
15341;DHT22;7770;52.158;5.372;2023-02-18T10:01:52;10.30;99.90
15341;DHT22;7770;52.158;5.372;2023-02-18T10:04:42;10.30;99.90
15341;DHT22;7770;52.158;5.372;2023-02-18T10:07:31;10.40;99.90
15341;DHT22;7770;52.158;5.372;2023-02-18T10:10:32;10.40;99.90
15341;DHT22;7770;52.158;5.372;2023-02-18T10:13:25;10.40;99.90
15341;DHT22;7770;52.158;5.372;2023-02-18T10:16:16;10.50;99.90
15341;DHT22;7770;52.158;5.372;2023-02-18T10:22:14;10.70;99.90
15341;DHT22;7770;52.158;5.372;2023-02-18T10:25:03;10.70;99.90
15341;DHT22;7770;52.158;5.372;2023-02-18T10:27:52;10.70;99.90
15341;DHT22;7770;52.158;5.372;2023-02-18T10:30:45;10.80;99.90
15341;DHT22;7770;52.158;5.372;2023-02-18T10:37:00;10.90;99.90
15341;DHT22;7770;52.158;5.372;2023-02-18T10:40:02;11.00;99.90
15341;DHT22;7770;52.158;5.372;2023-02-18T10:43:21;11.20;99.90
15341;DHT22;7770;52.158;5.372;2023-02-18T10:52:40;11.70;99.90
15341;DHT22;7770;52.158;5.372;2023-02-18T10:55:42;11.90;99.90
15341;DHT22;7770;52.158;5.372;2023-02-18T10:58:41;11.90;99.90
15341;DHT22;7770;52.158;5.372;2023-02-18T11:01:28;12.00;99.90
15341;DHT22;7770;52.158;5.372;2023-02-18T11:04:17;12.10;99.90
15341;DHT22;7770;52.158;5.372;2023-02-18T11:07:23;11.90;99.90
15341;DHT22;7770;52.158;5.372;2023-02-18T11:10:17;11.90;99.90
15341;DHT22;7770;52.158;5.372;2023-02-18T11:13:09;11.90;99.90
15341;DHT22;7770;52.158;5.372;2023-02-18T11:16:04;12.00;99.90
15341;DHT22;7770;52.158;5.372;2023-02-18T11:18:51;12.10;99.90
15341;DHT22;7770;52.158;5.372;2023-02-18T11:21:37;12.30;99.90
15341;DHT22;7770;52.158;5.372;2023-02-18T11:24:23;12.40;99.90
15341;DHT22;7770;52.158;5.372;2023-02-18T11:27:10;12.20;99.90
15341;DHT22;7770;52.158;5.372;2023-02-18T11:30:01;12.10;99.90
15341;DHT22;7770;52.158;5.372;2023-02-18T11:32:52;12.00;99.90
15341;DHT22;7770;52.158;5.372;2023-02-18T11:35:48;12.00;99.90
15341;DHT22;7770;52.158;5.372;2023-02-18T11:38:52;11.90;99.90
15341;DHT22;7770;52.158;5.372;2023-02-18T11:41:53;11.70;99.90
15341;DHT22;7770;52.158;5.372;2023-02-18T11:44:50;11.50;99.90
15341;DHT22;7770;52.158;5.372;2023-02-18T11:47:39;11.50;99.90
15341;DHT22;7770;52.158;5.372;2023-02-18T11:50:25;11.60;99.90
15341;DHT22;7770;52.158;5.372;2023-02-18T11:53:34;11.60;99.90
15341;DHT22;7770;52.158;5.372;2023-02-18T11:56:21;11.60;99.90
15341;DHT22;7770;52.158;5.372;2023-02-18T11:59:09;11.60;99.90
15341;DHT22;7770;52.158;5.372;2023-02-18T12:05:23;11.60;99.90
15341;DHT22;7770;52.158;5.372;2023-02-18T12:08:13;11.80;99.90
15341;DHT22;7770;52.158;5.372;2023-02-18T12:11:09;11.90;99.90
15341;DHT22;7770;52.158;5.372;2023-02-18T12:13:59;11.90;99.90
15341;DHT22;7770;52.158;5.372;2023-02-18T12:26:33;11.80;99.90
15341;DHT22;7770;52.158;5.372;2023-02-18T12:33:18;11.90;99.90
15341;DHT22;7770;52.158;5.372;2023-02-18T12:39:33;12.00;99.90
15341;DHT22;7770;52.158;5.372;2023-02-18T12:42:50;12.20;99.90
15341;DHT22;7770;52.158;5.372;2023-02-18T12:46:11;12.20;99.90
15341;DHT22;7770;52.158;5.372;2023-02-18T12:52:10;12.30;99.90
15341;DHT22;7770;52.158;5.372;2023-02-18T12:58:49;12.70;99.90
15341;DHT22;7770;52.158;5.372;2023-02-18T13:11:46;12.50;99.90
15341;DHT22;7770;52.158;5.372;2023-02-18T13:14:55;12.40;99.90
15341;DHT22;7770;52.158;5.372;2023-02-18T13:17:46;12.30;99.90
15341;DHT22;7770;52.158;5.372;2023-02-18T13:20:50;12.20;99.90
15341;DHT22;7770;52.158;5.372;2023-02-18T13:23:45;12.10;99.90
15341;DHT22;7770;52.158;5.372;2023-02-18T13:26:37;12.10;99.90
15341;DHT22;7770;52.158;5.372;2023-02-18T13:29:33;12.20;99.90
15341;DHT22;7770;52.158;5.372;2023-02-18T13:35:54;12.30;99.90
15341;DHT22;7770;52.158;5.372;2023-02-18T13:39:12;12.30;99.90
15341;DHT22;7770;52.158;5.372;2023-02-18T13:45:22;12.30;99.90
15341;DHT22;7770;52.158;5.372;2023-02-18T13:48:25;12.30;99.90
15341;DHT22;7770;52.158;5.372;2023-02-18T13:51:25;12.30;99.90
15341;DHT22;7770;52.158;5.372;2023-02-18T13:54:26;12.30;99.90
15341;DHT22;7770;52.158;5.372;2023-02-18T13:57:19;12.40;99.90
15341;DHT22;7770;52.158;5.372;2023-02-18T14:00:20;12.30;99.90
15341;DHT22;7770;52.158;5.372;2023-02-18T14:06:31;12.50;99.90
15341;DHT22;7770;52.158;5.372;2023-02-18T14:12:41;12.70;99.90
15341;DHT22;7770;52.158;5.372;2023-02-18T14:24:00;13.00;99.90
15341;DHT22;7770;52.158;5.372;2023-02-18T14:26:48;13.00;99.90
15341;DHT22;7770;52.158;5.372;2023-02-18T14:29:34;13.00;99.90
15341;DHT22;7770;52.158;5.372;2023-02-18T14:32:20;13.10;99.90
15341;DHT22;7770;52.158;5.372;2023-02-18T14:35:26;13.10;99.90
15341;DHT22;7770;52.158;5.372;2023-02-18T14:45:26;13.10;99.90
15341;DHT22;7770;52.158;5.372;2023-02-18T14:51:54;13.00;99.90
15341;DHT22;7770;52.158;5.372;2023-02-18T14:54:43;12.80;99.90
15341;DHT22;7770;52.158;5.372;2023-02-18T14:57:44;12.80;99.90
15341;DHT22;7770;52.158;5.372;2023-02-18T15:00:38;12.80;99.90
15341;DHT22;7770;52.158;5.372;2023-02-18T15:03:27;12.70;99.90
15341;DHT22;7770;52.158;5.372;2023-02-18T15:06:32;12.70;99.90
15341;DHT22;7770;52.158;5.372;2023-02-18T15:09:21;12.70;99.90
15341;DHT22;7770;52.158;5.372;2023-02-18T15:12:08;12.70;99.90
15341;DHT22;7770;52.158;5.372;2023-02-18T15:15:00;12.60;99.90
15341;DHT22;7770;52.158;5.372;2023-02-18T15:17:48;12.60;99.90
15341;DHT22;7770;52.158;5.372;2023-02-18T15:20:34;12.60;99.90
15341;DHT22;7770;52.158;5.372;2023-02-18T15:23:23;12.50;99.90
15341;DHT22;7770;52.158;5.372;2023-02-18T15:26:14;12.50;99.90
15341;DHT22;7770;52.158;5.372;2023-02-18T15:29:03;12.50;99.90
15341;DHT22;7770;52.158;5.372;2023-02-18T15:31:50;12.50;99.90
15341;DHT22;7770;52.158;5.372;2023-02-18T15:34:38;12.50;99.90
15341;DHT22;7770;52.158;5.372;2023-02-18T15:37:24;12.60;99.90
15341;DHT22;7770;52.158;5.372;2023-02-18T15:40:17;12.50;99.90
15341;DHT22;7770;52.158;5.372;2023-02-18T15:43:04;12.40;99.90
15341;DHT22;7770;52.158;5.372;2023-02-18T15:45:54;12.40;99.90
15341;DHT22;7770;52.158;5.372;2023-02-18T15:48:46;12.40;99.90
15341;DHT22;7770;52.158;5.372;2023-02-18T15:51:33;12.40;99.90
15341;DHT22;7770;52.158;5.372;2023-02-18T15:54:21;12.30;99.90
15341;DHT22;7770;52.158;5.372;2023-02-18T15:57:13;12.20;99.90
15341;DHT22;7770;52.158;5.372;2023-02-18T16:00:15;12.20;99.90
15341;DHT22;7770;52.158;5.372;2023-02-18T16:06:33;12.00;99.90
15341;DHT22;7770;52.158;5.372;2023-02-18T16:09:35;12.00;99.90
15341;DHT22;7770;52.158;5.372;2023-02-18T16:12:29;12.00;99.90
15341;DHT22;7770;52.158;5.372;2023-02-18T16:15:24;12.00;99.90
15341;DHT22;7770;52.158;5.372;2023-02-18T16:18:36;12.00;99.90
15341;DHT22;7770;52.158;5.372;2023-02-18T16:21:30;12.00;99.90
15341;DHT22;7770;52.158;5.372;2023-02-18T16:24:24;11.90;99.90
15341;DHT22;7770;52.158;5.372;2023-02-18T16:27:15;11.90;99.90
15341;DHT22;7770;52.158;5.372;2023-02-18T16:32:37;11.90;99.90
15341;DHT22;7770;52.158;5.372;2023-02-18T16:35:25;11.80;99.90
15341;DHT22;7770;52.158;5.372;2023-02-18T16:38:17;11.80;99.90
15341;DHT22;7770;52.158;5.372;2023-02-18T16:41:09;11.70;99.90
15341;DHT22;7770;52.158;5.372;2023-02-18T16:43:56;11.60;99.90
15341;DHT22;7770;52.158;5.372;2023-02-18T16:46:42;11.60;99.90
15341;DHT22;7770;52.158;5.372;2023-02-18T16:49:28;11.60;99.90
15341;DHT22;7770;52.158;5.372;2023-02-18T16:52:15;11.60;99.90
15341;DHT22;7770;52.158;5.372;2023-02-18T16:55:16;11.50;99.90
15341;DHT22;7770;52.158;5.372;2023-02-18T16:58:04;11.60;99.90
15341;DHT22;7770;52.158;5.372;2023-02-18T17:00:50;11.50;99.90
15341;DHT22;7770;52.158;5.372;2023-02-18T17:03:39;11.50;99.90
15341;DHT22;7770;52.158;5.372;2023-02-18T17:06:25;11.50;99.90
15341;DHT22;7770;52.158;5.372;2023-02-18T17:09:19;11.40;99.90
15341;DHT22;7770;52.158;5.372;2023-02-18T17:12:10;11.40;99.90
15341;DHT22;7770;52.158;5.372;2023-02-18T17:14:57;11.50;99.90
15341;DHT22;7770;52.158;5.372;2023-02-18T17:17:43;11.40;99.90
15341;DHT22;7770;52.158;5.372;2023-02-18T17:20:31;11.40;99.90
15341;DHT22;7770;52.158;5.372;2023-02-18T17:23:22;11.30;99.90
15341;DHT22;7770;52.158;5.372;2023-02-18T17:26:18;11.30;99.90
15341;DHT22;7770;52.158;5.372;2023-02-18T17:29:10;11.30;99.90
15341;DHT22;7770;52.158;5.372;2023-02-18T17:31:56;11.20;99.90
15341;DHT22;7770;52.158;5.372;2023-02-18T17:34:42;11.20;99.90
15341;DHT22;7770;52.158;5.372;2023-02-18T17:37:29;11.20;99.90
15341;DHT22;7770;52.158;5.372;2023-02-18T17:40:17;11.20;99.90
15341;DHT22;7770;52.158;5.372;2023-02-18T17:43:05;11.10;99.90
15341;DHT22;7770;52.158;5.372;2023-02-18T17:45:54;11.10;99.90
15341;DHT22;7770;52.158;5.372;2023-02-18T17:48:43;11.10;99.90
15341;DHT22;7770;52.158;5.372;2023-02-18T17:51:29;11.00;99.90
15341;DHT22;7770;52.158;5.372;2023-02-18T17:54:17;11.00;99.90
15341;DHT22;7770;52.158;5.372;2023-02-18T17:57:04;10.90;99.90
15341;DHT22;7770;52.158;5.372;2023-02-18T17:59:50;10.90;99.90
15341;DHT22;7770;52.158;5.372;2023-02-18T18:02:36;10.90;99.90
15341;DHT22;7770;52.158;5.372;2023-02-18T18:05:27;10.90;99.90
15341;DHT22;7770;52.158;5.372;2023-02-18T18:08:14;10.90;99.90
15341;DHT22;7770;52.158;5.372;2023-02-18T18:11:00;10.80;99.90
15341;DHT22;7770;52.158;5.372;2023-02-18T18:13:46;10.80;99.90
15341;DHT22;7770;52.158;5.372;2023-02-18T18:16:33;10.80;99.90
15341;DHT22;7770;52.158;5.372;2023-02-18T18:19:19;10.70;99.90
15341;DHT22;7770;52.158;5.372;2023-02-18T18:22:06;10.70;99.90
15341;DHT22;7770;52.158;5.372;2023-02-18T18:24:52;10.60;99.90
15341;DHT22;7770;52.158;5.372;2023-02-18T18:27:38;10.60;99.90
15341;DHT22;7770;52.158;5.372;2023-02-18T18:30:27;10.50;99.90
15341;DHT22;7770;52.158;5.372;2023-02-18T18:33:18;10.50;99.90
15341;DHT22;7770;52.158;5.372;2023-02-18T18:36:06;10.50;99.90
15341;DHT22;7770;52.158;5.372;2023-02-18T18:38:52;10.40;99.90
15341;DHT22;7770;52.158;5.372;2023-02-18T18:41:38;10.40;99.90
15341;DHT22;7770;52.158;5.372;2023-02-18T18:44:24;10.40;99.90
15341;DHT22;7770;52.158;5.372;2023-02-18T18:47:10;10.40;99.90
15341;DHT22;7770;52.158;5.372;2023-02-18T18:49:57;10.40;99.90
15341;DHT22;7770;52.158;5.372;2023-02-18T18:52:43;10.40;99.90
15341;DHT22;7770;52.158;5.372;2023-02-18T18:55:37;10.40;99.90
15341;DHT22;7770;52.158;5.372;2023-02-18T18:58:24;10.40;99.90
15341;DHT22;7770;52.158;5.372;2023-02-18T19:01:17;10.40;99.90
15341;DHT22;7770;52.158;5.372;2023-02-18T19:04:04;10.40;99.90
15341;DHT22;7770;52.158;5.372;2023-02-18T19:06:50;10.40;99.90
15341;DHT22;7770;52.158;5.372;2023-02-18T19:09:36;10.40;99.90
15341;DHT22;7770;52.158;5.372;2023-02-18T19:12:22;10.40;99.90
15341;DHT22;7770;52.158;5.372;2023-02-18T19:15:12;10.40;99.90
15341;DHT22;7770;52.158;5.372;2023-02-18T19:18:00;10.50;99.90
15341;DHT22;7770;52.158;5.372;2023-02-18T19:20:46;10.40;99.90
15341;DHT22;7770;52.158;5.372;2023-02-18T19:23:33;10.40;99.90
15341;DHT22;7770;52.158;5.372;2023-02-18T19:26:20;10.40;99.90
15341;DHT22;7770;52.158;5.372;2023-02-18T19:29:06;10.40;99.90
15341;DHT22;7770;52.158;5.372;2023-02-18T19:31:52;10.40;99.90
15341;DHT22;7770;52.158;5.372;2023-02-18T19:34:38;10.40;99.90
15341;DHT22;7770;52.158;5.372;2023-02-18T19:37:24;10.40;99.90
15341;DHT22;7770;52.158;5.372;2023-02-18T19:40:13;10.40;99.90
15341;DHT22;7770;52.158;5.372;2023-02-18T19:43:00;10.30;99.90
15341;DHT22;7770;52.158;5.372;2023-02-18T19:45:46;10.30;99.90
15341;DHT22;7770;52.158;5.372;2023-02-18T19:48:32;10.30;99.90
15341;DHT22;7770;52.158;5.372;2023-02-18T19:51:19;10.30;99.90
15341;DHT22;7770;52.158;5.372;2023-02-18T19:54:06;10.30;99.90
15341;DHT22;7770;52.158;5.372;2023-02-18T19:56:51;10.30;99.90
15341;DHT22;7770;52.158;5.372;2023-02-18T19:59:38;10.40;99.90
15341;DHT22;7770;52.158;5.372;2023-02-18T20:02:25;10.40;99.90
15341;DHT22;7770;52.158;5.372;2023-02-18T20:05:12;10.30;99.90
15341;DHT22;7770;52.158;5.372;2023-02-18T20:07:58;10.30;99.90